sensor_id;sensor_type;location;lat;lon;timestamp;pressure;altitude;pressure_sealevel;temperature;humidity
73338;BME280;61575;49.908;35.556;2023-08-20T00:01:19;99625.50;;;20.73;72.90
73338;BME280;61575;49.908;35.556;2023-08-20T00:04:25;99622.56;;;20.75;71.93
73338;BME280;61575;49.908;35.556;2023-08-20T00:07:28;99617.56;;;20.72;72.04
73338;BME280;61575;49.908;35.556;2023-08-20T00:10:31;99625.16;;;20.70;72.13
73338;BME280;61575;49.908;35.556;2023-08-20T00:13:33;99620.75;;;20.69;72.03
73338;BME280;61575;49.908;35.556;2023-08-20T00:16:35;99621.22;;;20.66;72.28
73338;BME280;61575;49.908;35.556;2023-08-20T00:19:37;99626.69;;;20.66;72.24
73338;BME280;61575;49.908;35.556;2023-08-20T00:22:40;99625.84;;;20.65;72.42
73338;BME280;61575;49.908;35.556;2023-08-20T00:25:44;99619.19;;;20.61;72.60
73338;BME280;61575;49.908;35.556;2023-08-20T00:28:46;99619.66;;;20.58;72.47
73338;BME280;61575;49.908;35.556;2023-08-20T00:31:48;99617.63;;;20.53;72.39
73338;BME280;61575;49.908;35.556;2023-08-20T00:34:50;99619.53;;;20.53;72.71
73338;BME280;61575;49.908;35.556;2023-08-20T00:37:52;99618.91;;;20.51;72.62
73338;BME280;61575;49.908;35.556;2023-08-20T00:40:54;99618.31;;;20.49;72.38
73338;BME280;61575;49.908;35.556;2023-08-20T00:43:56;99611.44;;;20.46;72.62
73338;BME280;61575;49.908;35.556;2023-08-20T00:46:59;99613.56;;;20.44;72.36
73338;BME280;61575;49.908;35.556;2023-08-20T00:50:02;99622.81;;;20.43;72.40
73338;BME280;61575;49.908;35.556;2023-08-20T00:53:09;99614.84;;;20.42;72.94
73338;BME280;61575;49.908;35.556;2023-08-20T00:56:12;99613.66;;;20.38;72.50
73338;BME280;61575;49.908;35.556;2023-08-20T00:59:15;99607.59;;;20.36;72.37
73338;BME280;61575;49.908;35.556;2023-08-20T01:02:18;99608.66;;;20.35;72.73
73338;BME280;61575;49.908;35.556;2023-08-20T01:05:21;99609.13;;;20.32;72.84
73338;BME280;61575;49.908;35.556;2023-08-20T01:08:37;99602.00;;;20.31;72.55
73338;BME280;61575;49.908;35.556;2023-08-20T01:11:45;99602.22;;;20.29;72.52
73338;BME280;61575;49.908;35.556;2023-08-20T01:14:48;99602.69;;;20.26;72.76
73338;BME280;61575;49.908;35.556;2023-08-20T01:17:50;99599.38;;;20.24;72.70
73338;BME280;61575;49.908;35.556;2023-08-20T01:20:58;99592.47;;;20.21;72.84
73338;BME280;61575;49.908;35.556;2023-08-20T01:27:30;99600.28;;;20.18;73.24
73338;BME280;61575;49.908;35.556;2023-08-20T01:30:39;99594.47;;;20.14;73.00
73338;BME280;61575;49.908;35.556;2023-08-20T01:33:42;99588.41;;;20.12;72.85
73338;BME280;61575;49.908;35.556;2023-08-20T01:36:44;99587.78;;;20.10;72.41
73338;BME280;61575;49.908;35.556;2023-08-20T01:39:46;99588.00;;;20.09;72.58
73338;BME280;61575;49.908;35.556;2023-08-20T01:42:49;99591.78;;;20.08;72.66
73338;BME280;61575;49.908;35.556;2023-08-20T01:45:51;99599.38;;;20.06;72.51
73338;BME280;61575;49.908;35.556;2023-08-20T01:48:53;99594.16;;;20.04;71.98
73338;BME280;61575;49.908;35.556;2023-08-20T01:51:55;99595.44;;;20.02;71.75
73338;BME280;61575;49.908;35.556;2023-08-20T01:54:57;99592.09;;;20.00;72.00
73338;BME280;61575;49.908;35.556;2023-08-20T01:57:59;99588.19;;;19.96;72.42
73338;BME280;61575;49.908;35.556;2023-08-20T02:01:01;99595.06;;;19.98;71.89
73338;BME280;61575;49.908;35.556;2023-08-20T02:04:05;99586.28;;;19.96;72.20
73338;BME280;61575;49.908;35.556;2023-08-20T02:07:07;99583.78;;;19.95;72.14
73338;BME280;61575;49.908;35.556;2023-08-20T02:10:09;99587.56;;;19.93;71.92
73338;BME280;61575;49.908;35.556;2023-08-20T02:13:12;99589.69;;;19.91;72.30
73338;BME280;61575;49.908;35.556;2023-08-20T02:16:14;99586.97;;;19.91;72.51
73338;BME280;61575;49.908;35.556;2023-08-20T02:19:18;99592.41;;;19.91;72.53
73338;BME280;61575;49.908;35.556;2023-08-20T02:22:20;99584.69;;;19.88;72.55
73338;BME280;61575;49.908;35.556;2023-08-20T02:25:23;99585.63;;;19.82;73.60
73338;BME280;61575;49.908;35.556;2023-08-20T02:28:28;99591.06;;;19.82;72.88
73338;BME280;61575;49.908;35.556;2023-08-20T02:31:31;99593.19;;;19.80;72.54
73338;BME280;61575;49.908;35.556;2023-08-20T02:34:32;99590.69;;;19.79;72.50
73338;BME280;61575;49.908;35.556;2023-08-20T02:37:35;99590.53;;;19.74;72.78
73338;BME280;61575;49.908;35.556;2023-08-20T02:40:41;99591.16;;;19.76;72.70
73338;BME280;61575;49.908;35.556;2023-08-20T02:43:44;99593.03;;;19.75;72.73
73338;BME280;61575;49.908;35.556;2023-08-20T02:46:46;99592.22;;;19.75;72.80
73338;BME280;61575;49.908;35.556;2023-08-20T02:49:48;99584.50;;;19.72;73.00
73338;BME280;61575;49.908;35.556;2023-08-20T02:52:50;99586.16;;;19.73;73.02
73338;BME280;61575;49.908;35.556;2023-08-20T02:55:52;99583.19;;;19.74;72.56
73338;BME280;61575;49.908;35.556;2023-08-20T02:58:54;99585.69;;;19.76;72.73
73338;BME280;61575;49.908;35.556;2023-08-20T03:01:56;99588.41;;;19.76;72.30
73338;BME280;61575;49.908;35.556;2023-08-20T03:04:58;99589.25;;;19.76;72.45
73338;BME280;61575;49.908;35.556;2023-08-20T03:08:01;99593.41;;;19.79;72.65
73338;BME280;61575;49.908;35.556;2023-08-20T03:11:03;99592.34;;;19.80;72.91
73338;BME280;61575;49.908;35.556;2023-08-20T03:14:05;99590.00;;;19.83;72.27
73338;BME280;61575;49.908;35.556;2023-08-20T03:17:06;99596.44;;;19.89;72.18
73338;BME280;61575;49.908;35.556;2023-08-20T03:20:09;99596.34;;;19.96;72.14
73338;BME280;61575;49.908;35.556;2023-08-20T03:23:11;99588.31;;;20.01;71.72
73338;BME280;61575;49.908;35.556;2023-08-20T03:26:13;99585.50;;;20.07;71.96
73338;BME280;61575;49.908;35.556;2023-08-20T03:29:15;99584.84;;;20.12;71.73
73338;BME280;61575;49.908;35.556;2023-08-20T03:32:18;99585.59;;;20.19;71.82
73338;BME280;61575;49.908;35.556;2023-08-20T03:35:20;99587.16;;;20.27;71.65
73338;BME280;61575;49.908;35.556;2023-08-20T03:38:22;99587.44;;;20.37;70.85
73338;BME280;61575;49.908;35.556;2023-08-20T03:41:24;99588.53;;;20.47;70.71
73338;BME280;61575;49.908;35.556;2023-08-20T03:44:26;99584.41;;;20.56;70.49
73338;BME280;61575;49.908;35.556;2023-08-20T03:47:28;99589.53;;;20.65;70.57
73338;BME280;61575;49.908;35.556;2023-08-20T03:50:30;99588.97;;;20.74;70.52
73338;BME280;61575;49.908;35.556;2023-08-20T03:53:32;99587.91;;;20.87;70.39
73338;BME280;61575;49.908;35.556;2023-08-20T03:56:34;99581.19;;;21.01;70.23
73338;BME280;61575;49.908;35.556;2023-08-20T03:59:36;99588.81;;;21.23;69.80
73338;BME280;61575;49.908;35.556;2023-08-20T04:02:38;99586.91;;;21.46;69.70
73338;BME280;61575;49.908;35.556;2023-08-20T04:05:40;99589.38;;;21.71;69.22
73338;BME280;61575;49.908;35.556;2023-08-20T04:08:42;99580.75;;;22.03;68.00
73338;BME280;61575;49.908;35.556;2023-08-20T04:11:45;99586.22;;;22.31;67.07
73338;BME280;61575;49.908;35.556;2023-08-20T04:14:47;99583.25;;;22.61;66.15
73338;BME280;61575;49.908;35.556;2023-08-20T04:17:49;99582.84;;;22.86;64.46
73338;BME280;61575;49.908;35.556;2023-08-20T04:20:51;99577.63;;;23.18;64.10
73338;BME280;61575;49.908;35.556;2023-08-20T04:23:54;99581.91;;;23.48;63.45
73338;BME280;61575;49.908;35.556;2023-08-20T04:26:56;99577.09;;;23.76;63.30
73338;BME280;61575;49.908;35.556;2023-08-20T04:30:01;99584.84;;;24.01;62.43
73338;BME280;61575;49.908;35.556;2023-08-20T04:33:04;99574.97;;;24.27;61.56
73338;BME280;61575;49.908;35.556;2023-08-20T04:36:07;99575.84;;;24.55;60.19
73338;BME280;61575;49.908;35.556;2023-08-20T04:39:09;99585.13;;;24.81;59.00
73338;BME280;61575;49.908;35.556;2023-08-20T04:42:16;99577.28;;;24.99;57.94
73338;BME280;61575;49.908;35.556;2023-08-20T04:45:19;99580.19;;;25.20;56.52
73338;BME280;61575;49.908;35.556;2023-08-20T04:48:22;99585.59;;;25.42;56.13
73338;BME280;61575;49.908;35.556;2023-08-20T04:51:24;99586.00;;;25.65;56.08
73338;BME280;61575;49.908;35.556;2023-08-20T04:54:26;99583.56;;;25.74;55.80
73338;BME280;61575;49.908;35.556;2023-08-20T04:57:28;99591.81;;;25.74;56.05
73338;BME280;61575;49.908;35.556;2023-08-20T05:00:32;99586.75;;;26.03;56.08
73338;BME280;61575;49.908;35.556;2023-08-20T05:03:40;99597.59;;;26.30;56.06
73338;BME280;61575;49.908;35.556;2023-08-20T05:06:42;99596.22;;;26.32;55.42
73338;BME280;61575;49.908;35.556;2023-08-20T05:09:44;99595.66;;;26.36;54.97
73338;BME280;61575;49.908;35.556;2023-08-20T05:12:46;99587.75;;;26.54;54.46
73338;BME280;61575;49.908;35.556;2023-08-20T05:15:48;99594.63;;;26.52;53.91
73338;BME280;61575;49.908;35.556;2023-08-20T05:18:50;99605.09;;;26.55;54.19
73338;BME280;61575;49.908;35.556;2023-08-20T05:21:52;99593.28;;;26.85;54.54
73338;BME280;61575;49.908;35.556;2023-08-20T05:24:58;99592.75;;;26.93;53.99
73338;BME280;61575;49.908;35.556;2023-08-20T05:28:01;99591.91;;;26.98;52.97
73338;BME280;61575;49.908;35.556;2023-08-20T05:31:04;99582.00;;;27.22;52.58
73338;BME280;61575;49.908;35.556;2023-08-20T05:34:06;99584.19;;;27.40;51.64
73338;BME280;61575;49.908;35.556;2023-08-20T05:37:09;99595.72;;;27.63;50.96
73338;BME280;61575;49.908;35.556;2023-08-20T05:40:11;99584.66;;;27.83;50.76
73338;BME280;61575;49.908;35.556;2023-08-20T05:43:13;99592.88;;;27.98;50.42
73338;BME280;61575;49.908;35.556;2023-08-20T05:46:16;99585.31;;;28.19;49.28
73338;BME280;61575;49.908;35.556;2023-08-20T05:49:18;99590.44;;;28.46;49.35
73338;BME280;61575;49.908;35.556;2023-08-20T05:52:20;99588.59;;;28.70;48.23
73338;BME280;61575;49.908;35.556;2023-08-20T05:55:22;99586.25;;;28.93;46.74
73338;BME280;61575;49.908;35.556;2023-08-20T05:58:25;99587.00;;;29.03;47.52
73338;BME280;61575;49.908;35.556;2023-08-20T06:01:27;99586.50;;;29.25;47.14
73338;BME280;61575;49.908;35.556;2023-08-20T06:04:29;99581.13;;;29.39;46.25
73338;BME280;61575;49.908;35.556;2023-08-20T06:07:31;99581.28;;;29.53;45.84
73338;BME280;61575;49.908;35.556;2023-08-20T06:10:33;99592.66;;;29.75;44.52
73338;BME280;61575;49.908;35.556;2023-08-20T06:13:35;99590.75;;;29.94;44.84
73338;BME280;61575;49.908;35.556;2023-08-20T06:16:37;99587.50;;;30.11;42.64
73338;BME280;61575;49.908;35.556;2023-08-20T06:19:39;99591.72;;;30.27;42.96
73338;BME280;61575;49.908;35.556;2023-08-20T06:22:41;99592.09;;;30.39;41.20
73338;BME280;61575;49.908;35.556;2023-08-20T06:25:42;99589.41;;;30.53;42.14
73338;BME280;61575;49.908;35.556;2023-08-20T06:28:44;99591.75;;;30.65;41.85
73338;BME280;61575;49.908;35.556;2023-08-20T06:31:47;99591.06;;;30.73;42.45
73338;BME280;61575;49.908;35.556;2023-08-20T06:34:49;99589.69;;;30.89;42.25
73338;BME280;61575;49.908;35.556;2023-08-20T06:37:51;99581.81;;;30.96;42.28
73338;BME280;61575;49.908;35.556;2023-08-20T06:40:52;99582.94;;;31.14;42.14
73338;BME280;61575;49.908;35.556;2023-08-20T06:43:55;99583.16;;;31.31;41.81
73338;BME280;61575;49.908;35.556;2023-08-20T06:46:56;99586.59;;;31.56;41.65
73338;BME280;61575;49.908;35.556;2023-08-20T06:49:58;99583.72;;;31.61;41.25
73338;BME280;61575;49.908;35.556;2023-08-20T06:53:00;99577.50;;;31.69;40.89
73338;BME280;61575;49.908;35.556;2023-08-20T06:56:02;99583.34;;;31.95;40.72
73338;BME280;61575;49.908;35.556;2023-08-20T06:59:04;99571.94;;;31.96;39.94
73338;BME280;61575;49.908;35.556;2023-08-20T07:02:06;99572.53;;;32.21;40.04
73338;BME280;61575;49.908;35.556;2023-08-20T07:05:08;99575.16;;;32.40;40.45
73338;BME280;61575;49.908;35.556;2023-08-20T07:08:11;99575.31;;;32.71;41.23
73338;BME280;61575;49.908;35.556;2023-08-20T07:11:13;99573.97;;;32.90;40.52
73338;BME280;61575;49.908;35.556;2023-08-20T07:14:15;99569.03;;;33.10;39.95
73338;BME280;61575;49.908;35.556;2023-08-20T07:17:17;99569.03;;;33.32;40.40
73338;BME280;61575;49.908;35.556;2023-08-20T07:20:19;99560.56;;;33.46;39.93
73338;BME280;61575;49.908;35.556;2023-08-20T07:23:21;99563.41;;;33.54;38.58
73338;BME280;61575;49.908;35.556;2023-08-20T07:26:23;99568.19;;;33.62;38.58
73338;BME280;61575;49.908;35.556;2023-08-20T07:29:26;99565.47;;;33.71;38.95
73338;BME280;61575;49.908;35.556;2023-08-20T07:32:28;99562.53;;;33.76;38.14
73338;BME280;61575;49.908;35.556;2023-08-20T07:35:30;99562.25;;;33.86;37.05
73338;BME280;61575;49.908;35.556;2023-08-20T07:38:32;99565.38;;;33.93;35.77
73338;BME280;61575;49.908;35.556;2023-08-20T07:41:34;99562.47;;;34.16;36.64
73338;BME280;61575;49.908;35.556;2023-08-20T07:44:36;99557.44;;;34.26;35.86
73338;BME280;61575;49.908;35.556;2023-08-20T07:47:38;99555.31;;;34.41;36.02
73338;BME280;61575;49.908;35.556;2023-08-20T07:50:41;99560.06;;;34.57;35.77
73338;BME280;61575;49.908;35.556;2023-08-20T07:53:42;99557.44;;;34.61;34.92
73338;BME280;61575;49.908;35.556;2023-08-20T07:56:44;99559.59;;;34.81;34.90
73338;BME280;61575;49.908;35.556;2023-08-20T07:59:46;99558.13;;;34.84;34.74
73338;BME280;61575;49.908;35.556;2023-08-20T08:02:48;99561.72;;;34.93;33.98
73338;BME280;61575;49.908;35.556;2023-08-20T08:05:50;99551.66;;;35.09;33.49
73338;BME280;61575;49.908;35.556;2023-08-20T08:08:52;99554.63;;;35.21;34.27
73338;BME280;61575;49.908;35.556;2023-08-20T08:11:55;99554.22;;;35.32;33.55
73338;BME280;61575;49.908;35.556;2023-08-20T08:14:57;99556.00;;;35.45;33.58
73338;BME280;61575;49.908;35.556;2023-08-20T08:17:58;99551.31;;;35.66;33.07
73338;BME280;61575;49.908;35.556;2023-08-20T08:21:00;99553.06;;;35.79;33.29
73338;BME280;61575;49.908;35.556;2023-08-20T08:24:02;99545.13;;;35.90;33.26
73338;BME280;61575;49.908;35.556;2023-08-20T08:27:04;99538.03;;;35.93;33.04
73338;BME280;61575;49.908;35.556;2023-08-20T08:30:07;99542.41;;;36.02;32.37
73338;BME280;61575;49.908;35.556;2023-08-20T08:33:09;99538.31;;;36.00;31.57
73338;BME280;61575;49.908;35.556;2023-08-20T08:36:11;99537.81;;;36.27;32.65
73338;BME280;61575;49.908;35.556;2023-08-20T08:39:13;99531.81;;;36.37;31.83
73338;BME280;61575;49.908;35.556;2023-08-20T08:42:18;99536.75;;;36.40;31.46
73338;BME280;61575;49.908;35.556;2023-08-20T08:45:24;99544.25;;;36.48;30.98
73338;BME280;61575;49.908;35.556;2023-08-20T08:48:28;99536.78;;;36.53;30.00
73338;BME280;61575;49.908;35.556;2023-08-20T08:51:30;99530.03;;;36.74;31.47
73338;BME280;61575;49.908;35.556;2023-08-20T08:54:33;99532.53;;;36.88;30.57
73338;BME280;61575;49.908;35.556;2023-08-20T08:57:36;99534.06;;;36.86;29.21
73338;BME280;61575;49.908;35.556;2023-08-20T09:00:38;99532.41;;;36.85;29.44
73338;BME280;61575;49.908;35.556;2023-08-20T09:03:40;99533.09;;;36.81;29.53
73338;BME280;61575;49.908;35.556;2023-08-20T09:06:46;99529.19;;;36.95;28.63
73338;BME280;61575;49.908;35.556;2023-08-20T09:09:48;99524.72;;;37.14;28.98
73338;BME280;61575;49.908;35.556;2023-08-20T09:12:54;99526.72;;;37.38;28.32
73338;BME280;61575;49.908;35.556;2023-08-20T09:15:57;99530.41;;;37.51;27.21
73338;BME280;61575;49.908;35.556;2023-08-20T09:19:00;99518.84;;;37.53;26.68
73338;BME280;61575;49.908;35.556;2023-08-20T09:22:03;99522.34;;;37.62;27.28
73338;BME280;61575;49.908;35.556;2023-08-20T09:25:05;99520.13;;;37.55;28.30
73338;BME280;61575;49.908;35.556;2023-08-20T09:28:07;99516.28;;;37.60;28.50
73338;BME280;61575;49.908;35.556;2023-08-20T09:31:10;99517.66;;;37.66;27.80
73338;BME280;61575;49.908;35.556;2023-08-20T09:34:12;99515.91;;;37.73;26.90
73338;BME280;61575;49.908;35.556;2023-08-20T09:37:17;99508.91;;;37.80;26.70
73338;BME280;61575;49.908;35.556;2023-08-20T09:40:19;99513.69;;;37.79;26.37
73338;BME280;61575;49.908;35.556;2023-08-20T09:43:25;99516.03;;;37.77;26.01
73338;BME280;61575;49.908;35.556;2023-08-20T09:46:31;99509.97;;;37.75;24.86
73338;BME280;61575;49.908;35.556;2023-08-20T09:49:37;99508.09;;;37.79;24.95
73338;BME280;61575;49.908;35.556;2023-08-20T09:52:56;99506.78;;;37.89;24.80
73338;BME280;61575;49.908;35.556;2023-08-20T09:56:10;99508.31;;;37.98;26.83
73338;BME280;61575;49.908;35.556;2023-08-20T09:59:16;99513.91;;;38.11;25.44
73338;BME280;61575;49.908;35.556;2023-08-20T10:02:19;99505.63;;;38.02;24.72
73338;BME280;61575;49.908;35.556;2023-08-20T10:05:22;99502.81;;;38.02;25.33
73338;BME280;61575;49.908;35.556;2023-08-20T10:08:25;99498.47;;;38.17;24.63
73338;BME280;61575;49.908;35.556;2023-08-20T10:11:28;99492.84;;;38.17;24.88
73338;BME280;61575;49.908;35.556;2023-08-20T10:14:30;99494.47;;;38.30;24.99
73338;BME280;61575;49.908;35.556;2023-08-20T10:17:33;99501.59;;;38.39;24.53
73338;BME280;61575;49.908;35.556;2023-08-20T10:20:38;99495.38;;;38.46;24.32
73338;BME280;61575;49.908;35.556;2023-08-20T10:23:42;99486.94;;;38.46;24.62
73338;BME280;61575;49.908;35.556;2023-08-20T10:26:45;99486.13;;;38.46;23.58
73338;BME280;61575;49.908;35.556;2023-08-20T10:29:48;99492.31;;;37.99;24.34
73338;BME280;61575;49.908;35.556;2023-08-20T10:32:51;99482.91;;;38.19;24.26
73338;BME280;61575;49.908;35.556;2023-08-20T11:28:30;99428.38;;;38.04;23.92
73338;BME280;61575;49.908;35.556;2023-08-20T11:31:32;99424.88;;;38.07;23.72
73338;BME280;61575;49.908;35.556;2023-08-20T11:34:34;99415.28;;;38.08;23.53
73338;BME280;61575;49.908;35.556;2023-08-20T11:37:36;99408.34;;;38.18;23.31
73338;BME280;61575;49.908;35.556;2023-08-20T11:40:38;99408.34;;;38.18;23.64
73338;BME280;61575;49.908;35.556;2023-08-20T11:43:41;99407.28;;;38.23;23.98
73338;BME280;61575;49.908;35.556;2023-08-20T11:46:44;99401.81;;;38.14;24.29
73338;BME280;61575;49.908;35.556;2023-08-20T11:49:46;99401.38;;;38.12;24.05
73338;BME280;61575;49.908;35.556;2023-08-20T11:52:48;99392.84;;;38.08;22.46
73338;BME280;61575;49.908;35.556;2023-08-20T11:55:50;99386.59;;;37.99;22.53
73338;BME280;61575;49.908;35.556;2023-08-20T11:58:52;99392.41;;;38.06;22.85
73338;BME280;61575;49.908;35.556;2023-08-20T12:01:59;99388.53;;;38.11;23.95
73338;BME280;61575;49.908;35.556;2023-08-20T12:05:05;99394.22;;;38.15;23.67
73338;BME280;61575;49.908;35.556;2023-08-20T12:08:07;99386.78;;;38.06;23.68
73338;BME280;61575;49.908;35.556;2023-08-20T12:11:09;99380.00;;;38.07;23.50
73338;BME280;61575;49.908;35.556;2023-08-20T12:14:11;99380.63;;;38.01;23.10
73338;BME280;61575;49.908;35.556;2023-08-20T12:17:17;99381.31;;;37.98;23.54
73338;BME280;61575;49.908;35.556;2023-08-20T12:20:20;99384.59;;;38.00;22.47
73338;BME280;61575;49.908;35.556;2023-08-20T12:58:22;99345.47;;;37.51;25.07
73338;BME280;61575;49.908;35.556;2023-08-20T13:01:24;99350.00;;;37.56;23.97
73338;BME280;61575;49.908;35.556;2023-08-20T13:04:26;99341.53;;;37.16;23.72
73338;BME280;61575;49.908;35.556;2023-08-20T13:07:28;99350.50;;;37.09;25.20
73338;BME280;61575;49.908;35.556;2023-08-20T13:10:30;99340.09;;;36.97;24.95
73338;BME280;61575;49.908;35.556;2023-08-20T13:13:32;99343.00;;;36.76;25.59
73338;BME280;61575;49.908;35.556;2023-08-20T13:16:36;99345.44;;;36.78;25.91
73338;BME280;61575;49.908;35.556;2023-08-20T13:19:38;99349.53;;;36.68;25.33
73338;BME280;61575;49.908;35.556;2023-08-20T13:22:40;99332.97;;;36.63;25.73
73338;BME280;61575;49.908;35.556;2023-08-20T13:25:42;99338.44;;;36.60;25.44
73338;BME280;61575;49.908;35.556;2023-08-20T13:28:45;99334.66;;;36.43;24.72
73338;BME280;61575;49.908;35.556;2023-08-20T13:31:47;99338.00;;;36.37;27.80
73338;BME280;61575;49.908;35.556;2023-08-20T13:34:49;99328.81;;;36.36;26.00
73338;BME280;61575;49.908;35.556;2023-08-20T13:37:52;99326.94;;;36.40;25.76
73338;BME280;61575;49.908;35.556;2023-08-20T13:40:54;99326.72;;;36.45;27.01
73338;BME280;61575;49.908;35.556;2023-08-20T13:43:57;99321.59;;;36.47;26.35
73338;BME280;61575;49.908;35.556;2023-08-20T13:46:59;99327.66;;;36.49;26.13
73338;BME280;61575;49.908;35.556;2023-08-20T13:50:01;99325.81;;;36.54;26.41
73338;BME280;61575;49.908;35.556;2023-08-20T13:53:06;99318.16;;;36.63;26.09
73338;BME280;61575;49.908;35.556;2023-08-20T13:56:08;99324.53;;;36.51;24.93
73338;BME280;61575;49.908;35.556;2023-08-20T13:59:10;99314.44;;;36.59;25.00
73338;BME280;61575;49.908;35.556;2023-08-20T14:02:12;99324.91;;;36.62;24.97
73338;BME280;61575;49.908;35.556;2023-08-20T14:05:14;99322.94;;;36.62;25.66
73338;BME280;61575;49.908;35.556;2023-08-20T14:08:16;99318.97;;;36.63;26.76
73338;BME280;61575;49.908;35.556;2023-08-20T14:11:17;99313.03;;;36.65;26.20
73338;BME280;61575;49.908;35.556;2023-08-20T14:14:19;99316.06;;;36.72;25.23
73338;BME280;61575;49.908;35.556;2023-08-20T14:17:21;99316.19;;;36.75;25.23
73338;BME280;61575;49.908;35.556;2023-08-20T14:20:23;99311.06;;;36.77;25.71
73338;BME280;61575;49.908;35.556;2023-08-20T14:23:25;99310.34;;;36.80;25.88
73338;BME280;61575;49.908;35.556;2023-08-20T14:26:27;99307.44;;;36.89;25.65
73338;BME280;61575;49.908;35.556;2023-08-20T14:29:29;99301.13;;;36.92;25.29
73338;BME280;61575;49.908;35.556;2023-08-20T14:32:31;99294.38;;;36.93;25.35
73338;BME280;61575;49.908;35.556;2023-08-20T14:35:33;99292.38;;;36.94;24.91
73338;BME280;61575;49.908;35.556;2023-08-20T14:38:35;99288.78;;;36.93;25.17
73338;BME280;61575;49.908;35.556;2023-08-20T14:41:37;99290.66;;;36.89;25.77
73338;BME280;61575;49.908;35.556;2023-08-20T14:44:39;99280.63;;;36.88;26.36
73338;BME280;61575;49.908;35.556;2023-08-20T14:47:41;99284.13;;;36.85;26.46
73338;BME280;61575;49.908;35.556;2023-08-20T14:50:43;99281.66;;;36.71;25.91
73338;BME280;61575;49.908;35.556;2023-08-20T14:53:45;99288.06;;;36.60;27.59
73338;BME280;61575;49.908;35.556;2023-08-20T14:56:47;99282.31;;;36.44;27.29
73338;BME280;61575;49.908;35.556;2023-08-20T14:59:50;99283.34;;;36.27;28.42
73338;BME280;61575;49.908;35.556;2023-08-20T15:02:53;99277.44;;;36.08;29.33
73338;BME280;61575;49.908;35.556;2023-08-20T15:05:55;99276.88;;;35.81;29.67
73338;BME280;61575;49.908;35.556;2023-08-20T15:08:57;99280.72;;;35.56;30.79
73338;BME280;61575;49.908;35.556;2023-08-20T15:11:59;99276.97;;;35.31;31.82
73338;BME280;61575;49.908;35.556;2023-08-20T15:15:04;99275.59;;;35.16;33.08
73338;BME280;61575;49.908;35.556;2023-08-20T15:18:07;99270.94;;;35.00;34.16
73338;BME280;61575;49.908;35.556;2023-08-20T15:21:09;99285.19;;;34.77;35.34
73338;BME280;61575;49.908;35.556;2023-08-20T15:24:13;99277.72;;;34.52;35.91
73338;BME280;61575;49.908;35.556;2023-08-20T15:27:15;99283.06;;;34.27;36.36
73338;BME280;61575;49.908;35.556;2023-08-20T15:30:17;99289.31;;;34.07;37.63
73338;BME280;61575;49.908;35.556;2023-08-20T15:33:20;99280.19;;;33.89;38.83
73338;BME280;61575;49.908;35.556;2023-08-20T15:36:22;99286.09;;;33.79;38.99
73338;BME280;61575;49.908;35.556;2023-08-20T15:39:24;99277.41;;;33.55;40.80
73338;BME280;61575;49.908;35.556;2023-08-20T15:42:26;99278.53;;;33.45;40.91
73338;BME280;61575;49.908;35.556;2023-08-20T15:45:28;99280.94;;;33.21;41.30
73338;BME280;61575;49.908;35.556;2023-08-20T15:48:30;99280.28;;;33.07;41.56
73338;BME280;61575;49.908;35.556;2023-08-20T15:51:32;99281.84;;;32.82;42.74
73338;BME280;61575;49.908;35.556;2023-08-20T15:54:34;99280.63;;;32.65;42.77
73338;BME280;61575;49.908;35.556;2023-08-20T15:57:38;99276.78;;;32.44;42.59
73338;BME280;61575;49.908;35.556;2023-08-20T16:00:40;99278.97;;;32.25;43.29
73338;BME280;61575;49.908;35.556;2023-08-20T16:03:42;99272.16;;;32.09;44.38
73338;BME280;61575;49.908;35.556;2023-08-20T16:06:45;99280.69;;;31.90;44.75
73338;BME280;61575;49.908;35.556;2023-08-20T16:09:47;99282.91;;;31.79;45.07
73338;BME280;61575;49.908;35.556;2023-08-20T16:12:49;99284.41;;;31.63;45.23
73338;BME280;61575;49.908;35.556;2023-08-20T16:15:50;99279.63;;;31.41;45.93
73338;BME280;61575;49.908;35.556;2023-08-20T16:18:52;99283.41;;;31.23;45.13
73338;BME280;61575;49.908;35.556;2023-08-20T16:21:54;99275.59;;;30.97;45.59
73338;BME280;61575;49.908;35.556;2023-08-20T16:24:56;99278.59;;;30.73;45.46
73338;BME280;61575;49.908;35.556;2023-08-20T16:27:58;99276.97;;;30.59;45.41
73338;BME280;61575;49.908;35.556;2023-08-20T16:31:00;99282.34;;;30.36;46.21
73338;BME280;61575;49.908;35.556;2023-08-20T16:34:02;99282.22;;;30.14;46.88
73338;BME280;61575;49.908;35.556;2023-08-20T16:37:04;99273.88;;;30.00;47.57
73338;BME280;61575;49.908;35.556;2023-08-20T16:40:06;99275.25;;;29.84;47.77
73338;BME280;61575;49.908;35.556;2023-08-20T16:43:10;99279.41;;;29.68;47.87
73338;BME280;61575;49.908;35.556;2023-08-20T16:46:11;99282.78;;;29.46;48.59
73338;BME280;61575;49.908;35.556;2023-08-20T16:49:14;99276.13;;;29.28;49.19
73338;BME280;61575;49.908;35.556;2023-08-20T16:52:15;99272.22;;;29.10;49.96
73338;BME280;61575;49.908;35.556;2023-08-20T16:55:18;99271.59;;;28.95;50.57
73338;BME280;61575;49.908;35.556;2023-08-20T16:58:20;99278.41;;;28.78;51.21
73338;BME280;61575;49.908;35.556;2023-08-20T17:01:24;99281.91;;;28.65;52.29
73338;BME280;61575;49.908;35.556;2023-08-20T17:04:26;99285.97;;;28.49;52.57
73338;BME280;61575;49.908;35.556;2023-08-20T17:07:30;99284.19;;;28.34;53.27
73338;BME280;61575;49.908;35.556;2023-08-20T17:10:32;99278.19;;;28.22;53.29
73338;BME280;61575;49.908;35.556;2023-08-20T17:13:36;99277.53;;;28.06;54.17
73338;BME280;61575;49.908;35.556;2023-08-20T17:16:38;99278.19;;;27.93;54.95
73338;BME280;61575;49.908;35.556;2023-08-20T17:19:40;99287.97;;;27.80;55.40
73338;BME280;61575;49.908;35.556;2023-08-20T17:22:42;99288.84;;;27.71;56.22
73338;BME280;61575;49.908;35.556;2023-08-20T17:25:44;99279.25;;;27.63;55.84